N651AT KSGJ-KDAB
Flight info
| Callsign | N651AT |
|---|---|
| Flight time | 0h 25m |
| Altitude | 3500 |
| Route | DCT |
| Aircraft | DA62/L-V/C |
Departure
| Time | 2026-05-04 01:08 |
|---|---|
| Airport | Northeast Florida Regional Airport (KSGJ) |
Arrival
| Time | 2026-05-04 01:34 |
|---|---|
| Airport | Daytona Beach International Airport (KDAB) |
| Time | Latitude | Longitude | Altitude | Speed | Heading |
|---|---|---|---|---|---|
| 2026-05-04 00:50 | 29.95762 | -81.34065 | 18 ft | 0 kts | 68° |
| 2026-05-04 01:04 | 29.95762 | -81.34058 | 18 ft | 3 kts | 103° |
| 2026-05-04 01:05 | 29.95743 | -81.34051 | 19 ft | 6 kts | 193° |
| 2026-05-04 01:05 | 29.95695 | -81.34067 | 19 ft | 8 kts | 186° |
| 2026-05-04 01:05 | 29.95652 | -81.34063 | 19 ft | 4 kts | 191° |
| 2026-05-04 01:05 | 29.95617 | -81.34082 | 19 ft | 7 kts | 220° |
| 2026-05-04 01:06 | 29.95570 | -81.34121 | 17 ft | 10 kts | 200° |
| 2026-05-04 01:06 | 29.95497 | -81.34152 | 17 ft | 12 kts | 200° |
| 2026-05-04 01:06 | 29.95446 | -81.34173 | 17 ft | 3 kts | 189° |
| 2026-05-04 01:06 | 29.95431 | -81.34169 | 18 ft | 0 kts | 134° |
| 2026-05-04 01:07 | 29.95424 | -81.34157 | 18 ft | 4 kts | 111° |
| 2026-05-04 01:07 | 29.95418 | -81.34138 | 18 ft | 1 kts | 122° |
| 2026-05-04 01:07 | 29.95411 | -81.34130 | 19 ft | 3 kts | 150° |
| 2026-05-04 01:07 | 29.95405 | -81.34109 | 19 ft | 8 kts | 59° |
| 2026-05-04 01:08 | 29.95541 | -81.33823 | 20 ft | 68 kts | 61° |
| 2026-05-04 01:08 | 29.95791 | -81.33306 | 254 ft | 79 kts | 60° |
| 2026-05-04 01:08 | 29.96082 | -81.32738 | 551 ft | 86 kts | 58° |
| 2026-05-04 01:08 | 29.96271 | -81.32057 | 779 ft | 105 kts | 96° |
| 2026-05-04 01:09 | 29.96047 | -81.31511 | 959 ft | 114 kts | 112° |
| 2026-05-04 01:09 | 29.95368 | -81.30633 | 1469 ft | 121 kts | 147° |
| 2026-05-04 01:09 | 29.94826 | -81.30376 | 1581 ft | 134 kts | 153° |
| 2026-05-04 01:09 | 29.93872 | -81.29947 | 1569 ft | 156 kts | 154° |
| 2026-05-04 01:10 | 29.92818 | -81.29463 | 1571 ft | 169 kts | 153° |
| 2026-05-04 01:10 | 29.91735 | -81.28965 | 1565 ft | 164 kts | 155° |
| 2026-05-04 01:10 | 29.90688 | -81.28489 | 1562 ft | 160 kts | 154° |
| 2026-05-04 01:10 | 29.89660 | -81.28024 | 1557 ft | 158 kts | 155° |
| 2026-05-04 01:11 | 29.88643 | -81.27568 | 1560 ft | 156 kts | 155° |
| 2026-05-04 01:11 | 29.87633 | -81.27117 | 1559 ft | 155 kts | 153° |
| 2026-05-04 01:11 | 29.86628 | -81.26670 | 1562 ft | 155 kts | 153° |
| 2026-05-04 01:11 | 29.85627 | -81.26214 | 1562 ft | 155 kts | 153° |
| 2026-05-04 01:12 | 29.84636 | -81.25721 | 1565 ft | 156 kts | 153° |
| 2026-05-04 01:12 | 29.83648 | -81.25237 | 1562 ft | 156 kts | 151° |
| 2026-05-04 01:12 | 29.82627 | -81.24801 | 1493 ft | 162 kts | 164° |
| 2026-05-04 01:12 | 29.81493 | -81.24515 | 1289 ft | 171 kts | 164° |
| 2026-05-04 01:13 | 29.80314 | -81.24178 | 1152 ft | 171 kts | 163° |
| 2026-05-04 01:13 | 29.79170 | -81.23879 | 1211 ft | 163 kts | 160° |
| 2026-05-04 01:13 | 29.78209 | -81.23321 | 1336 ft | 151 kts | 154° |
| 2026-05-04 01:13 | 29.77233 | -81.22919 | 1454 ft | 147 kts | 154° |
| 2026-05-04 01:14 | 29.76280 | -81.22493 | 1499 ft | 148 kts | 153° |
| 2026-05-04 01:14 | 29.75315 | -81.22036 | 1500 ft | 152 kts | 152° |
| 2026-05-04 01:14 | 29.74334 | -81.21570 | 1500 ft | 152 kts | 151° |
| 2026-05-04 01:14 | 29.73354 | -81.21100 | 1504 ft | 154 kts | 153° |
| 2026-05-04 01:15 | 29.72349 | -81.20620 | 1500 ft | 158 kts | 153° |
| 2026-05-04 01:15 | 29.71344 | -81.20140 | 1497 ft | 155 kts | 153° |
| 2026-05-04 01:15 | 29.70347 | -81.19664 | 1505 ft | 156 kts | 153° |
| 2026-05-04 01:15 | 29.69342 | -81.19183 | 1501 ft | 156 kts | 153° |
| 2026-05-04 01:16 | 29.68350 | -81.18710 | 1507 ft | 157 kts | 151° |
| 2026-05-04 01:16 | 29.67344 | -81.18229 | 1510 ft | 157 kts | 153° |
| 2026-05-04 01:16 | 29.66329 | -81.17743 | 1510 ft | 159 kts | 154° |
| 2026-05-04 01:16 | 29.65317 | -81.17262 | 1511 ft | 157 kts | 153° |
| 2026-05-04 01:17 | 29.64302 | -81.16777 | 1511 ft | 159 kts | 152° |
| 2026-05-04 01:17 | 29.63283 | -81.16290 | 1509 ft | 159 kts | 153° |
| 2026-05-04 01:17 | 29.62255 | -81.15800 | 1503 ft | 161 kts | 153° |
| 2026-05-04 01:17 | 29.61267 | -81.15329 | 1507 ft | 159 kts | 152° |
| 2026-05-04 01:18 | 29.60242 | -81.14840 | 1509 ft | 160 kts | 152° |
| 2026-05-04 01:18 | 29.59213 | -81.14350 | 1504 ft | 159 kts | 150° |
| 2026-05-04 01:18 | 29.58190 | -81.13861 | 1507 ft | 159 kts | 153° |
| 2026-05-04 01:18 | 29.57163 | -81.13373 | 1502 ft | 160 kts | 154° |
| 2026-05-04 01:19 | 29.56133 | -81.12882 | 1503 ft | 160 kts | 153° |
| 2026-05-04 01:19 | 29.55122 | -81.12401 | 1503 ft | 159 kts | 152° |
| 2026-05-04 01:19 | 29.54101 | -81.11913 | 1503 ft | 159 kts | 154° |
| 2026-05-04 01:19 | 29.53090 | -81.11433 | 1497 ft | 155 kts | 153° |
| 2026-05-04 01:20 | 29.52097 | -81.10961 | 1499 ft | 154 kts | 152° |
| 2026-05-04 01:20 | 29.51102 | -81.10487 | 1499 ft | 155 kts | 150° |
| 2026-05-04 01:20 | 29.50102 | -81.10010 | 1501 ft | 157 kts | 152° |
| 2026-05-04 01:20 | 29.49092 | -81.09529 | 1503 ft | 157 kts | 153° |
| 2026-05-04 01:21 | 29.48075 | -81.09047 | 1507 ft | 158 kts | 151° |
| 2026-05-04 01:21 | 29.47052 | -81.08559 | 1498 ft | 159 kts | 152° |
| 2026-05-04 01:21 | 29.46030 | -81.08074 | 1498 ft | 158 kts | 153° |
| 2026-05-04 01:21 | 29.45010 | -81.07589 | 1501 ft | 159 kts | 152° |
| 2026-05-04 01:22 | 29.43989 | -81.07105 | 1498 ft | 158 kts | 152° |
| 2026-05-04 01:22 | 29.42988 | -81.06629 | 1497 ft | 157 kts | 153° |
| 2026-05-04 01:22 | 29.41981 | -81.06150 | 1501 ft | 157 kts | 154° |
| 2026-05-04 01:22 | 29.40971 | -81.05671 | 1492 ft | 157 kts | 153° |
| 2026-05-04 01:23 | 29.39958 | -81.05190 | 1489 ft | 157 kts | 153° |
| 2026-05-04 01:23 | 29.38955 | -81.04714 | 1490 ft | 155 kts | 153° |
| 2026-05-04 01:23 | 29.37960 | -81.04242 | 1492 ft | 154 kts | 154° |
| 2026-05-04 01:23 | 29.36964 | -81.03769 | 1492 ft | 155 kts | 153° |
| 2026-05-04 01:24 | 29.35963 | -81.03294 | 1487 ft | 156 kts | 153° |
| 2026-05-04 01:24 | 29.34973 | -81.02824 | 1488 ft | 156 kts | 152° |
| 2026-05-04 01:24 | 29.33953 | -81.02341 | 1488 ft | 157 kts | 152° |
| 2026-05-04 01:24 | 29.32946 | -81.01864 | 1492 ft | 157 kts | 152° |
| 2026-05-04 01:25 | 29.31949 | -81.01390 | 1496 ft | 158 kts | 152° |
| 2026-05-04 01:25 | 29.30932 | -81.00909 | 1496 ft | 158 kts | 152° |
| 2026-05-04 01:25 | 29.29861 | -81.00615 | 1493 ft | 160 kts | 166° |
| 2026-05-04 01:25 | 29.28809 | -81.00238 | 1488 ft | 157 kts | 155° |
| 2026-05-04 01:26 | 29.27784 | -80.99798 | 1489 ft | 157 kts | 155° |
| 2026-05-04 01:26 | 29.26760 | -80.99365 | 1481 ft | 157 kts | 155° |
| 2026-05-04 01:26 | 29.25734 | -80.98937 | 1480 ft | 157 kts | 155° |
| 2026-05-04 01:26 | 29.24717 | -80.98496 | 1481 ft | 156 kts | 155° |
| 2026-05-04 01:27 | 29.23701 | -80.98051 | 1480 ft | 157 kts | 154° |
| 2026-05-04 01:27 | 29.22671 | -80.97620 | 1483 ft | 158 kts | 155° |
| 2026-05-04 01:27 | 29.21663 | -80.97455 | 1477 ft | 134 kts | 173° |
| 2026-05-04 01:27 | 29.20819 | -80.97400 | 1470 ft | 112 kts | 171° |
| 2026-05-04 01:28 | 29.20025 | -80.97345 | 1489 ft | 116 kts | 170° |
| 2026-05-04 01:28 | 29.19211 | -80.97322 | 1481 ft | 120 kts | 184° |
| 2026-05-04 01:28 | 29.18507 | -80.97835 | 1479 ft | 124 kts | 233° |
| 2026-05-04 01:28 | 29.18074 | -80.98688 | 1486 ft | 127 kts | 241° |
| 2026-05-04 01:29 | 29.17622 | -80.99563 | 1491 ft | 132 kts | 241° |
| 2026-05-04 01:29 | 29.17161 | -81.00483 | 1495 ft | 135 kts | 241° |
| 2026-05-04 01:29 | 29.16690 | -81.01428 | 1495 ft | 138 kts | 241° |
| 2026-05-04 01:29 | 29.16193 | -81.02382 | 1506 ft | 139 kts | 239° |
| 2026-05-04 01:30 | 29.15765 | -81.03263 | 1499 ft | 115 kts | 241° |
| 2026-05-04 01:30 | 29.15393 | -81.04001 | 1484 ft | 101 kts | 238° |
| 2026-05-04 01:30 | 29.15053 | -81.04708 | 1403 ft | 102 kts | 242° |
| 2026-05-04 01:30 | 29.14692 | -81.05402 | 1232 ft | 105 kts | 244° |
| 2026-05-04 01:31 | 29.14314 | -81.06250 | 1043 ft | 128 kts | 245° |
| 2026-05-04 01:31 | 29.14016 | -81.07198 | 967 ft | 120 kts | 268° |
| 2026-05-04 01:31 | 29.14246 | -81.08002 | 887 ft | 98 kts | 317° |
| 2026-05-04 01:31 | 29.14753 | -81.08385 | 782 ft | 81 kts | 339° |
| 2026-05-04 01:32 | 29.15265 | -81.08648 | 679 ft | 79 kts | 344° |
| 2026-05-04 01:32 | 29.15779 | -81.08801 | 560 ft | 80 kts | 11° |
| 2026-05-04 01:32 | 29.16232 | -81.08486 | 403 ft | 86 kts | 46° |
| 2026-05-04 01:32 | 29.16643 | -81.07928 | 384 ft | 96 kts | 50° |
| 2026-05-04 01:33 | 29.16969 | -81.07256 | 320 ft | 97 kts | 63° |
| 2026-05-04 01:33 | 29.17254 | -81.06535 | 199 ft | 99 kts | 63° |
| 2026-05-04 01:33 | 29.17510 | -81.05918 | 88 ft | 80 kts | 64° |
| 2026-05-04 01:33 | 29.17716 | -81.05409 | 38 ft | 55 kts | 65° |
| 2026-05-04 01:34 | 29.17843 | -81.05093 | 35 ft | 34 kts | 65° |
| 2026-05-04 01:34 | 29.17911 | -81.04943 | 33 ft | 7 kts | 24° |
| 2026-05-04 01:34 | 29.17952 | -81.04953 | 35 ft | 7 kts | 337° |
| 2026-05-04 01:34 | 29.18032 | -81.04990 | 36 ft | 8 kts | 337° |
| 2026-05-04 01:35 | 29.18065 | -81.04979 | 37 ft | 4 kts | 57° |
| 2026-05-04 01:35 | 29.18090 | -81.04973 | 38 ft | 3 kts | 32° |
| 2026-05-04 01:35 | 29.18096 | -81.04936 | 39 ft | 5 kts | 137° |
| 2026-05-04 01:35 | 29.18093 | -81.04934 | 39 ft | 0 kts | 159° |